Time;durP1;ratioP1;P1;durP2;ratioP2;P2;SDS_P1;SDS_P2;PMS_P1;PMS_P2;Temp;Humidity;BMP_temperature;BMP_pressure;BME280_temperature;BME280_humidity;BME280_pressure;Samples;Min_cycle;Max_cycle;Signal;HPM_P1;HPM_P2
2021/07/16 00:03:35;;;;;;;18.63;14.73;;;;;;;23.38;70.01;98666.58;260723;1095;114802;-71
2021/07/16 00:09:00;;;;;;;21.85;13.98;;;;;;;23.38;70.07;98656.55;263285;1094;114837;-73
2021/07/16 00:14:05;;;;;;;21.47;14.13;;;;;;;23.37;70.42;98656.75;262120;1093;115012;-74
2021/07/16 00:19:09;;;;;;;26.93;15.03;;;;;;;23.37;70.14;98656.75;262775;1096;114822;-72
2021/07/16 00:24:14;;;;;;;;;;;;;;;23.33;69.83;98674.42;262237;1096;114698;-70
2021/07/16 00:29:18;;;;;;;21.70;14.55;;;;;;;23.25;70.29;98671.80;260699;1093;102990;-71
2021/07/16 00:34:23;;;;;;;20.13;12.93;;;;;;;23.19;69.86;98657.09;262369;1093;114671;-74
2021/07/16 00:39:28;;;;;;;17.43;12.73;;;;;;;23.19;69.98;98657.09;261644;1095;115115;-70
2021/07/16 00:44:37;;;;;;;21.67;14.50;;;;;;;23.18;69.99;98657.28;260943;1093;114874;-70
2021/07/16 00:49:41;;;;;;;21.90;15.07;;;;;;;23.10;69.77;98672.63;261801;1096;115114;-70
2021/07/16 00:54:45;;;;;;;22.63;14.20;;;;;;;22.99;69.92;98683.91;263211;1095;115060;-73
2021/07/16 00:59:52;;;;;;;17.67;13.10;;;;;;;22.93;69.94;98697.37;262543;1095;114851;-72
2021/07/16 01:04:56;;;;;;;17.38;13.25;;;;;;;22.95;70.14;98692.61;263257;1093;116145;-69
2021/07/16 01:10:00;;;;;;;20.55;14.25;;;;;;;22.97;70.13;98693.28;261434;1093;114988;-70
2021/07/16 01:15:06;;;;;;;22.73;13.70;;;;;;;23.03;70.67;98720.55;262394;1095;115110;-70
2021/07/16 01:20:11;;;;;;;19.43;12.50;;;;;;;23.05;70.17;98726.61;263230;1095;114940;-70
2021/07/16 01:25:21;;;;;;;20.27;13.43;;;;;;;23.08;70.18;98723.53;261689;1093;115356;-70
2021/07/16 01:30:29;;;;;;;20.97;13.70;;;;;;;23.11;70.38;98717.74;262447;1093;115234;-72
2021/07/16 01:35:33;;;;;;;20.20;12.57;;;;;;;23.10;69.82;98721.50;262570;1096;115145;-71
2021/07/16 01:40:37;;;;;;;18.07;11.30;;;;;;;23.10;70.18;98723.38;262098;1093;115122;-69
2021/07/16 01:45:42;;;;;;;18.73;12.27;;;;;;;23.09;70.00;98721.66;260362;1095;115507;-70
2021/07/16 01:50:49;;;;;;;17.13;13.20;;;;;;;23.09;70.13;98730.64;260376;1095;115907;-72
2021/07/16 01:55:53;;;;;;;24.67;14.83;;;;;;;23.06;70.43;98727.45;260335;1096;114975;-71
2021/07/16 02:00:57;;;;;;;26.83;15.85;;;;;;;23.00;70.17;98736.35;260243;1096;115226;-71
2021/07/16 02:06:01;;;;;;;20.88;15.00;;;;;;;22.93;70.07;98747.09;261572;1094;115083;-72
2021/07/16 02:11:04;;;;;;;21.20;14.75;;;;;;;22.88;70.41;98746.73;263204;1093;115026;-71
2021/07/16 02:16:08;;;;;;;22.63;15.15;;;;;;;22.87;70.28;98743.19;263227;1096;115202;-74
2021/07/16 02:21:12;;;;;;;19.63;13.80;;;;;;;22.84;70.07;98739.99;261616;1094;114960;-70
2021/07/16 02:26:16;;;;;;;20.70;13.28;;;;;;;22.85;70.19;98736.24;262545;1093;115909;-71
2021/07/16 02:31:20;;;;;;;17.90;11.35;;;;;;;22.82;69.86;98723.88;263233;1093;115333;-69
2021/07/16 02:36:24;;;;;;;18.78;13.38;;;;;;;22.78;70.12;98719.84;262398;1095;116092;-73
2021/07/16 02:41:28;;;;;;;22.30;14.48;;;;;;;22.78;70.37;98724.42;262988;1093;115437;-70
2021/07/16 02:46:33;;;;;;;19.25;14.88;;;;;;;22.78;70.27;98719.84;260397;1094;114718;-73
2021/07/16 02:51:37;;;;;;;;;;;;;;;22.78;70.44;98719.00;261828;1093;115050;-71
2021/07/16 02:56:41;;;;;;;18.93;13.17;;;;;;;22.77;70.68;98712.73;261466;1095;103082;-70
2021/07/16 03:01:55;;;;;;;;;;;;;;;22.80;70.61;98693.38;260692;1095;114754;-70
2021/07/16 03:07:00;;;;;;;25.48;15.10;;;;;;;22.77;70.89;98679.34;262572;1093;102938;-74
2021/07/16 03:12:05;;;;;;;25.03;14.88;;;;;;;22.75;70.87;98656.95;263243;1093;116228;-70
2021/07/16 03:17:08;;;;;;;21.98;15.70;;;;;;;22.76;70.92;98653.20;262987;1095;115237;-72
2021/07/16 03:22:13;;;;;;;21.00;15.30;;;;;;;22.77;71.18;98650.33;261500;1095;115646;-72
2021/07/16 03:27:16;;;;;;;25.83;15.68;;;;;;;22.78;71.25;98643.87;262746;1093;115277;-70
2021/07/16 03:32:20;;;;;;;23.73;14.73;;;;;;;22.77;71.14;98634.05;263220;1093;114998;-73
2021/07/16 03:37:23;;;;;;;26.03;14.75;;;;;;;22.76;71.01;98645.94;263248;1093;115110;-70
2021/07/16 03:42:27;;;;;;;26.70;16.75;;;;;;;22.80;71.27;98639.11;263232;1093;115194;-70
2021/07/16 03:47:31;;;;;;;23.08;16.25;;;;;;;22.86;71.55;98641.10;263195;1095;116401;-70
2021/07/16 03:52:34;;;;;;;27.85;15.80;;;;;;;22.84;71.13;98645.86;261857;1093;115239;-69
2021/07/16 03:57:46;;;;;;;22.30;14.73;;;;;;;22.85;71.27;98655.67;263007;1093;115274;-73
2021/07/16 04:02:49;;;;;;;27.00;14.67;;;;;;;22.87;71.06;98658.22;263241;1096;115661;-69
2021/07/16 04:08:02;;;;;;;21.25;12.30;;;;;;;22.85;70.94;98666.53;263053;1095;115121;-70
2021/07/16 04:13:12;;;;;;;15.00;9.53;;;;;;;22.77;70.41;98690.19;263136;1095;115346;-69
2021/07/16 04:18:16;;;;;;;11.67;7.90;;;;;;;22.62;70.55;98685.56;263186;1094;115062;-68
2021/07/16 04:23:21;;;;;;;15.00;8.30;;;;;;;22.57;70.32;98692.54;263168;1096;115742;-70
2021/07/16 04:28:24;;;;;;;14.93;8.98;;;;;;;22.50;70.47;98694.28;263116;1096;114855;-67
2021/07/16 04:33:28;;;;;;;17.50;9.93;;;;;;;22.47;70.71;98709.04;263175;1096;114974;-70
2021/07/16 04:38:32;;;;;;;15.38;9.18;;;;;;;22.45;70.48;98721.92;263206;1095;115003;-69
2021/07/16 04:43:36;;;;;;;11.77;8.07;;;;;;;22.42;70.56;98734.00;263163;1093;115358;-67
2021/07/16 04:48:39;;;;;;;16.00;9.48;;;;;;;22.44;70.49;98736.52;262355;1094;115629;-70
2021/07/16 04:53:43;;;;;;;14.68;9.55;;;;;;;22.48;70.52;98745.98;262873;1095;115446;-71
2021/07/16 04:58:47;;;;;;;15.80;9.48;;;;;;;22.47;70.44;98752.44;263267;1093;115020;-72
2021/07/16 05:03:52;;;;;;;16.88;8.60;;;;;;;22.49;70.51;98755.83;263190;1093;115276;-74
2021/07/16 05:08:55;;;;;;;15.87;8.47;;;;;;;22.55;70.56;98765.94;263089;1096;115111;-72
2021/07/16 05:14:01;;;;;;;14.55;9.18;;;;;;;22.66;70.81;98773.69;262999;1095;115585;-71
2021/07/16 05:19:05;;;;;;;21.70;10.47;;;;;;;22.78;70.39;98776.82;263199;1093;114961;-69
2021/07/16 05:24:08;;;;;;;20.80;11.28;;;;;;;22.85;70.51;98779.66;263205;1093;115478;-70
2021/07/16 05:29:12;;;;;;;16.63;11.63;;;;;;;22.89;70.25;98762.86;262862;1096;115558;-68
2021/07/16 05:34:17;;;;;;;18.83;13.10;;;;;;;22.97;70.36;98772.83;263144;1095;115187;-70
2021/07/16 05:39:20;;;;;;;33.38;18.65;;;;;;;23.05;70.24;98780.91;263268;1093;115695;-68
2021/07/16 05:44:24;;;;;;;36.50;20.45;;;;;;;23.16;70.40;98776.91;263164;1095;115434;-68
2021/07/16 05:49:27;;;;;;;43.63;23.05;;;;;;;23.24;70.36;98778.73;263269;1095;115265;-67
2021/07/16 05:54:34;;;;;;;41.48;22.78;;;;;;;23.30;70.49;98788.84;263079;1093;115346;-67
2021/07/16 05:59:37;;;;;;;42.50;23.33;;;;;;;23.33;70.42;98785.77;263156;1093;114756;-66
2021/07/16 06:04:41;;;;;;;47.08;25.93;;;;;;;23.38;70.06;98797.78;263214;1094;115447;-68
2021/07/16 06:09:45;;;;;;;47.60;25.80;;;;;;;23.37;70.20;98796.10;263255;1096;115711;-71
2021/07/16 06:14:54;;;;;;;44.13;21.88;;;;;;;23.33;69.90;98800.19;263204;1096;115351;-71
2021/07/16 06:19:59;;;;;;;40.00;22.60;;;;;;;23.35;70.11;98817.16;263142;1093;115428;-67
2021/07/16 06:25:05;;;;;;;41.00;23.20;;;;;;;23.37;70.25;98814.27;263175;1093;114782;-71
2021/07/16 06:30:10;;;;;;;206.87;148.03;;;;;;;23.52;70.51;98820.58;263252;1093;115246;-71
2021/07/16 06:35:14;;;;;;;64.63;37.33;;;;;;;23.60;70.35;98816.93;263143;1093;115508;-74
2021/07/16 06:40:19;;;;;;;159.73;111.33;;;;;;;23.62;70.32;98825.75;262324;1093;115698;-69
2021/07/16 06:45:22;;;;;;;;;;;;;;;23.67;70.47;98828.75;263217;1093;117266;-69
2021/07/16 06:50:26;;;;;;;231.57;138.93;;;;;;;23.68;70.15;98835.92;263244;1095;102468;-72
2021/07/16 06:55:30;;;;;;;90.50;52.90;;;;;;;23.73;70.09;98825.33;263124;1095;115312;-69
2021/07/16 07:00:34;;;;;;;85.58;53.20;;;;;;;23.82;70.05;98831.55;261627;1093;115102;-72
2021/07/16 07:05:38;;;;;;;70.73;41.37;;;;;;;23.86;69.85;98832.02;261743;1093;115198;-75
2021/07/16 07:10:42;;;;;;;54.35;24.70;;;;;;;23.91;69.90;98818.70;263120;1095;115848;-75
2021/07/16 07:15:45;;;;;;;64.55;35.35;;;;;;;23.96;69.69;98816.28;263102;1095;115065;-75
2021/07/16 07:20:51;;;;;;;52.88;27.93;;;;;;;23.98;69.54;98815.08;261134;1094;114829;-70
2021/07/16 07:25:54;;;;;;;55.67;27.50;;;;;;;23.96;69.46;98811.69;260162;1093;115465;-70
2021/07/16 07:30:58;;;;;;;46.55;23.68;;;;;;;23.95;69.32;98801.85;261272;1095;114738;-70
2021/07/16 07:36:02;;;;;;;44.08;23.50;;;;;;;23.96;69.46;98802.69;262518;1095;115695;-74
2021/07/16 07:41:06;;;;;;;58.33;25.33;;;;;;;24.02;69.45;98799.23;263124;1095;115028;-76
2021/07/16 07:46:10;;;;;;;44.85;24.63;;;;;;;24.02;69.33;98807.39;263102;1095;115139;-75
2021/07/16 07:51:13;;;;;;;41.53;24.10;;;;;;;24.05;69.23;98809.73;262364;1095;115502;-76
2021/07/16 07:56:18;;;;;;;43.67;24.83;;;;;;;24.05;69.09;98804.30;262283;1096;115333;-75
2021/07/16 08:01:22;;;;;;;39.65;24.58;;;;;;;24.10;69.21;98812.72;263256;1093;114978;-80
2021/07/16 08:06:26;;;;;;;;;;;;;;;24.17;69.32;98827.25;263185;1095;114910;-77
2021/07/16 08:11:31;;;;;;;35.25;22.95;;;;;;;24.15;68.94;98832.05;263215;1095;101314;-73
2021/07/16 08:16:35;;;;;;;35.97;22.50;;;;;;;24.16;68.84;98843.77;262473;1096;115179;-76
2021/07/16 08:21:39;;;;;;;41.40;23.55;;;;;;;24.19;69.22;98852.39;262203;1096;115380;-76
2021/07/16 08:26:43;;;;;;;37.30;22.90;;;;;;;24.30;68.97;98856.52;260514;1094;114805;-76
2021/07/16 08:31:48;;;;;;;40.77;24.03;;;;;;;24.38;69.06;98861.85;260368;1095;115063;-79
2021/07/16 08:36:51;;;;;;;38.60;24.63;;;;;;;24.45;68.87;98859.25;262168;1096;115265;-77
2021/07/16 08:41:56;;;;;;;32.07;21.40;;;;;;;24.47;68.45;98858.04;261844;1093;114721;-75
2021/07/16 08:47:01;;;;;;;33.60;22.57;;;;;;;24.53;68.01;98856.45;262510;1095;115294;-73
2021/07/16 08:52:07;;;;;;;41.17;24.07;;;;;;;24.58;68.47;98848.55;260576;1094;115673;-76
2021/07/16 08:57:15;;;;;;;39.33;24.57;;;;;;;24.60;68.45;98840.21;261485;1095;115488;-77
2021/07/16 09:02:24;;;;;;;37.43;22.43;;;;;;;24.63;68.14;98824.34;261187;1093;114940;-76
2021/07/16 09:07:28;;;;;;;41.20;22.85;;;;;;;24.69;68.35;98818.12;262377;1093;115024;-75
2021/07/16 09:12:36;;;;;;;38.03;21.77;;;;;;;24.81;68.35;98823.08;261043;1095;115002;-75
2021/07/16 09:17:46;;;;;;;38.33;24.80;;;;;;;24.88;68.24;98815.83;262361;1095;114876;-76
2021/07/16 09:23:10;;;;;;;35.77;22.70;;;;;;;24.93;67.88;98824.25;260662;1093;114808;-76
2021/07/16 09:28:25;;;;;;;36.48;21.80;;;;;;;24.98;67.67;98819.09;260388;1095;115039;-79
2021/07/16 09:33:30;;;;;;;;;;;;;;;25.09;67.72;98823.17;262192;1094;114922;-77
2021/07/16 09:38:34;;;;;;;;;;;;;;;25.23;67.45;98817.69;262611;1094;102716;-75
2021/07/16 09:43:38;;;;;;;60.73;36.93;;;;;;;25.37;67.76;98821.38;262404;1093;103019;-77
2021/07/16 09:48:44;;;;;;;37.75;26.90;;;;;;;25.53;67.21;98809.37;260907;1094;114785;-76
2021/07/16 09:54:03;;;;;;;33.77;20.70;;;;;;;25.64;66.62;98816.16;260866;1094;114880;-76
2021/07/16 09:59:13;;;;;;;81.30;62.80;;;;;;;25.76;66.67;98817.31;261673;1095;115026;-77
2021/07/16 10:04:21;;;;;;;44.50;30.90;;;;;;;25.95;66.84;98810.34;263252;1093;115073;-75
2021/07/16 10:09:25;;;;;;;30.67;21.10;;;;;;;26.03;66.04;98806.63;263084;1095;114896;-74
2021/07/16 10:14:28;;;;;;;30.60;21.13;;;;;;;26.14;66.09;98814.25;263035;1096;115124;-76
2021/07/16 10:19:32;;;;;;;29.85;19.83;;;;;;;26.34;66.29;98822.55;262889;1093;115150;-76
2021/07/16 10:24:38;;;;;;;27.57;22.53;;;;;;;26.48;65.50;98821.59;263235;1095;115398;-75
2021/07/16 10:30:07;;;;;;;28.37;22.47;;;;;;;26.42;65.16;98822.36;263270;1095;114696;-75
2021/07/16 10:35:18;;;;;;;25.73;18.90;;;;;;;26.34;64.73;98828.00;263199;1095;115416;-76
2021/07/16 10:40:43;;;;;;;66.93;53.03;;;;;;;26.41;65.04;98831.61;263119;1095;115069;-75
2021/07/16 10:45:47;;;;;;;53.90;41.70;;;;;;;26.46;64.93;98823.67;262660;1096;114739;-76
2021/07/16 10:50:52;;;;;;;46.18;30.28;;;;;;;26.37;64.78;98825.71;263200;1096;115521;-79
2021/07/16 10:55:59;;;;;;;32.20;23.47;;;;;;;26.29;64.32;98825.89;263008;1095;115208;-76
2021/07/16 11:01:07;;;;;;;37.53;24.00;;;;;;;26.18;64.14;98821.81;261130;1095;114768;-75
2021/07/16 11:06:13;;;;;;;38.20;23.03;;;;;;;26.27;64.66;98832.59;262171;1092;114911;-73
2021/07/16 11:11:35;;;;;;;34.07;23.13;;;;;;;26.42;64.66;98823.20;263251;1093;115337;-78
2021/07/16 11:16:41;;;;;;;35.73;24.23;;;;;;;26.53;64.44;98819.11;263225;1095;114786;-75
2021/07/16 11:21:46;;;;;;;40.10;24.20;;;;;;;26.37;64.39;98827.60;262993;1095;115268;-76
2021/07/16 11:27:17;;;;;;;61.20;43.03;;;;;;;26.36;64.93;98828.66;262192;1093;115287;-76
2021/07/16 11:32:22;;;;;;;36.87;26.53;;;;;;;26.40;64.97;98822.58;263136;1094;115446;-76
2021/07/16 11:37:34;;;;;;;33.13;25.03;;;;;;;26.40;64.38;98829.93;263226;1096;115007;-78
2021/07/16 11:42:45;;;;;;;35.50;24.10;;;;;;;26.33;64.14;98823.59;263165;1093;116384;-76
2021/07/16 11:47:50;;;;;;;31.27;21.63;;;;;;;26.34;64.60;98826.11;263230;1094;115294;-79
2021/07/16 11:52:55;;;;;;;132.43;93.50;;;;;;;26.58;65.23;98816.59;263117;1096;115288;-73
2021/07/16 11:58:04;;;;;;;30.70;20.67;;;;;;;26.75;64.60;98813.52;262470;1095;115393;-71
2021/07/16 12:03:23;;;;;;;28.60;18.93;;;;;;;26.73;64.32;98810.13;263263;1093;115352;-76
2021/07/16 12:08:29;;;;;;;138.47;118.17;;;;;;;26.67;63.91;98817.28;263251;1093;115640;-76
2021/07/16 12:13:34;;;;;;;27.17;19.33;;;;;;;26.67;63.80;98820.01;262993;1096;115441;-75
2021/07/16 12:18:38;;;;;;;22.10;16.33;;;;;;;26.69;63.42;98809.70;263208;1093;115282;-75
2021/07/16 12:23:48;;;;;;;20.90;14.30;;;;;;;26.73;63.60;98812.87;263114;1093;116304;-75
2021/07/16 12:29:05;;;;;;;21.03;15.33;;;;;;;26.79;63.70;98812.89;263073;1096;115418;-72
2021/07/16 12:34:23;;;;;;;69.53;57.20;;;;;;;26.83;63.32;98805.13;263125;1093;116404;-75
2021/07/16 12:39:27;;;;;;;24.50;17.67;;;;;;;26.81;63.27;98805.34;262962;1093;114656;-78
2021/07/16 12:44:34;;;;;;;23.27;16.43;;;;;;;26.89;63.23;98805.14;263154;1095;115263;-73
2021/07/16 12:49:37;;;;;;;32.73;17.33;;;;;;;27.17;63.65;98797.88;263126;1096;114990;-75
2021/07/16 12:54:41;;;;;;;26.38;16.10;;;;;;;27.35;63.58;98785.30;263041;1095;115171;-73
2021/07/16 12:59:48;;;;;;;22.28;16.78;;;;;;;27.68;63.26;98773.50;263132;1093;115372;-74
2021/07/16 13:04:53;;;;;;;26.23;15.50;;;;;;;28.06;63.30;98776.44;263122;1095;115407;-73
2021/07/16 13:09:57;;;;;;;23.57;16.00;;;;;;;28.39;62.51;98761.81;263086;1096;115375;-76
2021/07/16 13:15:04;;;;;;;23.18;15.33;;;;;;;28.67;62.20;98761.48;263051;1093;114797;-74
2021/07/16 13:20:13;;;;;;;19.97;14.93;;;;;;;28.88;61.82;98765.79;262947;1093;115319;-74
2021/07/16 13:25:18;;;;;;;18.17;15.00;;;;;;;29.12;61.43;98760.61;263067;1096;115317;-72
2021/07/16 13:30:22;;;;;;;17.80;12.80;;;;;;;29.36;61.03;98762.53;263155;1095;115542;-75
2021/07/16 13:35:26;;;;;;;17.93;12.30;;;;;;;29.53;60.72;98761.97;263120;1093;114907;-77
2021/07/16 13:40:30;;;;;;;;;;;;;;;29.73;60.02;98761.83;263179;1093;115098;-73
2021/07/16 13:45:34;;;;;;;26.58;16.10;;;;;;;29.89;59.73;98756.59;263253;1096;101402;-72
2021/07/16 13:50:38;;;;;;;20.68;14.78;;;;;;;30.05;59.23;98760.63;263081;1095;114752;-72
2021/07/16 13:55:43;;;;;;;20.30;12.75;;;;;;;30.20;59.24;98767.67;263066;1095;115932;-73
2021/07/16 14:00:47;;;;;;;17.23;12.77;;;;;;;30.33;58.40;98762.89;263184;1093;115176;-73
2021/07/16 14:05:50;;;;;;;;;;;;;;;30.49;58.11;98771.56;263105;1093;114811;-72
2021/07/16 14:10:54;;;;;;;33.68;27.00;;;;;;;30.58;58.43;98771.02;263099;1095;101797;-74
2021/07/16 14:15:59;;;;;;;21.33;13.20;;;;;;;30.64;57.76;98772.02;263038;1094;115217;-78
2021/07/16 14:21:02;;;;;;;;;;;;;;;30.46;56.91;98772.85;263236;1093;115229;-75
2021/07/16 15:35:16;;;;;;;18.35;11.60;;;;;;;27.71;57.58;98726.59;262713;1096;102292;-76
2021/07/16 15:40:29;;;;;;;19.57;10.47;;;;;;;27.79;57.59;98733.78;262394;1095;115368;-75
2021/07/16 15:54:52;;;;;;;16.50;11.48;;;;;;;27.82;57.32;98725.16;262907;1093;102850;-76
2021/07/16 16:00:34;;;;;;;17.03;11.47;;;;;;;27.83;57.34;98737.77;262239;1093;114664;-75
2021/07/16 16:05:59;;;;;;;22.03;12.17;;;;;;;27.82;57.56;98739.66;261412;1096;114312;-73
2021/07/16 16:11:04;;;;;;;15.37;10.93;;;;;;;27.79;57.36;98726.41;261622;1095;115047;-74
2021/07/16 16:16:08;;;;;;;21.40;12.17;;;;;;;27.75;57.93;98732.47;262639;1096;115125;-78
2021/07/16 16:21:16;;;;;;;15.18;11.83;;;;;;;27.71;58.22;98742.16;262840;1096;115170;-76
2021/07/16 16:26:21;;;;;;;18.63;12.13;;;;;;;27.55;58.32;98749.77;262573;1095;115299;-77
2021/07/16 16:31:25;;;;;;;17.57;12.07;;;;;;;27.23;58.24;98735.05;262557;1096;115164;-75
2021/07/16 16:36:28;;;;;;;19.03;11.00;;;;;;;27.04;58.43;98746.79;262908;1096;115819;-75
2021/07/16 16:41:33;;;;;;;17.95;10.40;;;;;;;26.85;58.52;98746.53;263108;1096;114412;-72
2021/07/16 16:46:38;;;;;;;21.25;9.95;;;;;;;26.70;58.52;98745.02;263000;1096;115140;-74
2021/07/16 16:51:42;;;;;;;12.53;9.33;;;;;;;26.63;58.29;98764.11;263220;1094;114928;-71
2021/07/16 16:56:45;;;;;;;13.98;8.95;;;;;;;26.59;58.36;98766.41;263131;1095;114771;-70
2021/07/16 17:01:49;;;;;;;10.63;9.20;;;;;;;26.52;58.54;98778.36;262045;1095;114604;-73
2021/07/16 17:06:53;;;;;;;17.03;8.73;;;;;;;26.49;58.53;98784.22;262969;1093;115435;-70
2021/07/16 17:11:57;;;;;;;10.70;8.80;;;;;;;26.45;58.63;98770.11;263172;1093;114770;-72
2021/07/16 17:17:01;;;;;;;13.80;9.63;;;;;;;26.40;58.95;98768.00;263078;1095;116273;-74
2021/07/16 17:22:05;;;;;;;12.35;9.53;;;;;;;26.37;59.26;98767.56;263205;1093;114885;-73
2021/07/16 17:27:09;;;;;;;15.00;10.00;;;;;;;26.31;59.05;98758.30;262452;1095;115057;-70
2021/07/16 17:32:13;;;;;;;23.65;15.83;;;;;;;26.28;59.33;98763.31;262631;1095;115066;-70
2021/07/16 17:37:16;;;;;;;17.47;11.37;;;;;;;26.26;59.24;98770.89;262683;1093;114783;-73
2021/07/16 17:42:20;;;;;;;;;;;;;;;26.26;59.24;98770.89;263217;1095;114874;-71
2021/07/16 17:47:27;;;;;;;14.53;9.43;;;;;;;26.26;59.21;98770.89;263227;1094;101349;-71
2021/07/16 17:52:31;;;;;;;17.28;9.10;;;;;;;26.27;59.13;98761.64;263108;1095;114452;-73
2021/07/16 17:57:38;;;;;;;12.10;8.75;;;;;;;26.30;59.47;98761.24;263157;1095;114590;-74
2021/07/16 18:02:42;;;;;;;251.33;196.25;;;;;;;26.26;59.64;98758.08;263107;1096;114936;-75
2021/07/16 18:07:46;;;;;;;99.47;51.90;;;;;;;26.22;59.70;98769.58;263141;1095;115680;-76
2021/07/16 18:12:51;;;;;;;109.48;52.33;;;;;;;26.15;59.49;98772.27;263107;1095;114568;-74
2021/07/16 18:17:55;;;;;;;82.10;39.67;;;;;;;26.10;59.92;98767.44;262862;1095;115268;-73
2021/07/16 18:22:59;;;;;;;75.83;37.63;;;;;;;26.07;60.03;98784.20;263189;1092;115193;-75
2021/07/16 18:28:05;;;;;;;44.48;28.00;;;;;;;26.06;60.46;98779.80;263186;1093;115030;-80
2021/07/16 18:33:09;;;;;;;374.40;295.93;;;;;;;26.06;60.67;98779.80;263098;1096;114509;-76
2021/07/16 18:38:13;;;;;;;64.67;49.53;;;;;;;26.07;60.56;98797.84;261186;1096;115760;-74
2021/07/16 18:43:18;;;;;;;37.80;28.48;;;;;;;26.04;60.55;98800.13;263123;1095;114737;-77
2021/07/16 18:48:21;;;;;;;18.73;13.17;;;;;;;26.02;60.73;98799.47;263236;1093;114492;-76
2021/07/16 18:53:25;;;;;;;248.58;206.25;;;;;;;25.98;60.35;98823.58;263073;1094;114703;-76
2021/07/16 18:58:31;;;;;;;26.60;22.07;;;;;;;25.88;60.46;98821.23;261444;1093;115052;-74
2021/07/16 19:03:35;;;;;;;13.67;9.63;;;;;;;25.76;60.43;98808.30;261461;1096;115247;-74
2021/07/16 19:08:42;;;;;;;13.70;8.93;;;;;;;25.61;60.03;98820.15;260698;1096;114724;-72
2021/07/16 19:13:47;;;;;;;12.07;7.87;;;;;;;25.49;60.36;98827.16;263063;1095;114776;-74
2021/07/16 19:18:50;;;;;;;11.35;8.83;;;;;;;25.41;60.34;98821.86;263064;1093;114984;-75
2021/07/16 19:23:54;;;;;;;12.78;8.45;;;;;;;25.35;60.75;98834.38;262651;1093;114795;-75
2021/07/16 19:28:58;;;;;;;15.33;8.40;;;;;;;25.31;60.68;98838.53;263178;1095;114771;-72
2021/07/16 19:34:02;;;;;;;10.25;8.30;;;;;;;25.29;60.74;98837.03;262558;1096;114839;-72
2021/07/16 19:39:06;;;;;;;14.63;9.03;;;;;;;25.25;60.60;98844.75;263213;1093;114861;-75
2021/07/16 19:44:11;;;;;;;12.00;9.53;;;;;;;25.22;60.97;98840.52;263312;1094;114798;-72
2021/07/16 19:49:14;;;;;;;16.33;9.30;;;;;;;25.20;60.92;98829.00;263203;1093;114971;-72
2021/07/16 19:54:18;;;;;;;12.53;9.00;;;;;;;25.21;61.03;98830.67;262605;1093;114346;-75
2021/07/16 19:59:23;;;;;;;15.90;9.00;;;;;;;25.23;61.32;98844.92;262768;1093;114939;-75
2021/07/16 20:04:27;;;;;;;19.30;9.73;;;;;;;25.25;60.80;98844.75;262135;1096;114859;-69
2021/07/16 20:09:31;;;;;;;12.33;9.50;;;;;;;25.21;60.71;98832.56;260577;1096;114686;-68
2021/07/16 20:14:39;;;;;;;15.93;9.83;;;;;;;25.18;60.93;98822.89;261710;1094;114556;-72
2021/07/16 20:19:44;;;;;;;13.37;9.27;;;;;;;25.13;61.04;98814.44;261245;1093;114814;-73
2021/07/16 20:24:52;;;;;;;12.10;9.50;;;;;;;25.07;60.82;98822.52;263145;1093;114477;-73
2021/07/16 20:29:59;;;;;;;12.63;9.37;;;;;;;24.97;60.70;98825.58;263206;1095;114727;-71
2021/07/16 20:35:05;;;;;;;14.78;9.45;;;;;;;24.89;60.74;98836.56;262006;1095;114415;-72
2021/07/16 20:40:13;;;;;;;14.43;8.93;;;;;;;24.82;60.86;98843.81;260473;1094;114336;-73
2021/07/16 20:45:18;;;;;;;15.00;9.40;;;;;;;24.75;61.18;98844.58;263201;1093;114627;-72
2021/07/16 20:50:26;;;;;;;15.93;9.70;;;;;;;24.69;61.30;98845.33;261781;1096;114222;-72
2021/07/16 20:55:31;;;;;;;15.90;10.05;;;;;;;24.64;61.35;98847.80;263144;1095;114633;-68
2021/07/16 21:00:36;;;;;;;13.83;9.75;;;;;;;24.61;61.73;98850.05;263030;1095;114720;-71
2021/07/16 21:05:40;;;;;;;14.87;10.33;;;;;;;24.54;61.60;98844.53;263163;1093;115000;-74
2021/07/16 21:10:44;;;;;;;11.97;8.73;;;;;;;24.42;61.65;98860.50;263149;1096;114845;-72
2021/07/16 21:15:48;;;;;;;16.13;9.13;;;;;;;24.38;61.73;98861.02;263303;1093;114600;-74
2021/07/16 21:20:52;;;;;;;16.33;10.67;;;;;;;24.31;62.22;98860.91;263204;1095;114665;-71
2021/07/16 21:25:56;;;;;;;16.30;10.78;;;;;;;24.26;62.24;98860.66;263264;1095;114668;-72
2021/07/16 21:31:00;;;;;;;;;;;;;;;24.25;62.62;98859.81;263180;1092;115077;-74
2021/07/16 21:36:04;;;;;;;13.60;9.60;;;;;;;24.21;62.76;98882.95;263372;1093;101326;-74
2021/07/16 21:41:09;;;;;;;14.60;9.38;;;;;;;24.20;62.95;98888.59;263133;1093;115360;-77
2021/07/16 21:46:12;;;;;;;14.50;9.83;;;;;;;24.20;63.15;98894.03;261744;1095;114828;-76
2021/07/16 21:51:16;;;;;;;15.73;10.83;;;;;;;24.18;63.11;98891.48;260337;1093;114506;-73
2021/07/16 21:56:21;;;;;;;12.20;10.30;;;;;;;24.12;63.59;98896.81;261730;1093;115427;-74
2021/07/16 22:01:31;;;;;;;13.05;10.00;;;;;;;24.06;63.58;98903.86;262981;1094;114717;-71
2021/07/16 22:06:36;;;;;;;14.27;8.60;;;;;;;24.05;63.82;98910.34;260692;1093;114521;-70
2021/07/16 22:11:40;;;;;;;13.83;10.17;;;;;;;24.06;63.90;98907.41;262383;1093;115109;-70
2021/07/16 22:16:45;;;;;;;13.78;9.35;;;;;;;24.12;64.01;98899.53;263158;1095;114972;-71
2021/07/16 22:21:49;;;;;;;15.50;9.90;;;;;;;24.11;64.14;98886.98;263268;1093;114622;-70
2021/07/16 22:26:53;;;;;;;12.67;9.73;;;;;;;24.08;64.22;98869.15;261816;1093;114633;-70
2021/07/16 22:31:58;;;;;;;13.98;8.98;;;;;;;24.05;63.97;98878.55;260332;1093;115008;-71
2021/07/16 22:37:04;;;;;;;18.50;9.43;;;;;;;24.04;64.29;98889.59;262118;1093;114798;-71
2021/07/16 22:42:09;;;;;;;18.13;10.27;;;;;;;24.05;64.45;98881.27;260365;1093;114404;-73
2021/07/16 22:47:13;;;;;;;13.87;9.37;;;;;;;24.06;64.54;98876.67;260817;1093;114889;-72
2021/07/16 22:52:17;;;;;;;;;;;;;;;24.02;64.43;98864.48;262693;1093;114283;-71
2021/07/16 22:57:22;;;;;;;18.37;11.07;;;;;;;23.95;64.23;98853.50;261837;1093;102894;-70
2021/07/16 23:02:26;;;;;;;;;;;;;;;23.91;64.79;98846.72;261824;1096;115424;-70
2021/07/16 23:07:30;;;;;;;13.48;8.53;;;;;;;23.87;64.91;98839.13;261675;1096;102974;-72
2021/07/16 23:12:35;;;;;;;14.25;9.85;;;;;;;23.88;65.03;98835.38;261334;1094;114276;-73
2021/07/16 23:17:40;;;;;;;13.83;9.33;;;;;;;23.87;64.84;98820.11;261021;1093;114585;-72
2021/07/16 23:22:45;;;;;;;17.63;10.00;;;;;;;23.84;65.00;98833.06;262003;1093;114566;-70
2021/07/16 23:27:50;;;;;;;;;;;;;;;23.78;64.99;98831.08;262976;1096;114976;-80
2021/07/16 23:32:56;;;;;;;12.88;9.18;;;;;;;23.67;64.77;98826.03;263305;1095;101218;-74
2021/07/16 23:38:01;;;;;;;11.18;8.60;;;;;;;23.60;64.96;98816.93;260544;1093;114724;-72
2021/07/16 23:43:08;;;;;;;12.00;7.87;;;;;;;23.57;65.65;98814.58;261669;1092;114437;-72
2021/07/16 23:48:12;;;;;;;15.63;9.57;;;;;;;23.55;65.20;98827.52;260468;1096;114827;-74
2021/07/16 23:53:17;;;;;;;11.77;9.27;;;;;;;23.51;65.15;98839.79;260452;1093;114618;-74
2021/07/16 23:58:22;;;;;;;13.95;9.63;;;;;;;23.44;65.05;98841.52;262567;1094;114449;-73
